sensor_id;sensor_type;location;lat;lon;timestamp;P1;durP1;ratioP1;P2;durP2;ratioP2
2940;SDS011;1480;51.456;6.670;2024-02-21T00:00:13;15.13;;;7.50;;
2940;SDS011;1480;51.456;6.670;2024-02-21T00:02:41;11.20;;;7.23;;
2940;SDS011;1480;51.456;6.670;2024-02-21T00:05:07;22.53;;;8.57;;
2940;SDS011;1480;51.456;6.670;2024-02-21T00:07:34;24.47;;;8.27;;
2940;SDS011;1480;51.456;6.670;2024-02-21T00:10:02;18.47;;;8.63;;
2940;SDS011;1480;51.456;6.670;2024-02-21T00:12:29;24.97;;;10.50;;
2940;SDS011;1480;51.456;6.670;2024-02-21T00:14:56;15.80;;;8.00;;
2940;SDS011;1480;51.456;6.670;2024-02-21T00:17:25;21.83;;;8.57;;
2940;SDS011;1480;51.456;6.670;2024-02-21T00:19:52;17.40;;;8.40;;
2940;SDS011;1480;51.456;6.670;2024-02-21T00:22:19;17.40;;;8.33;;
2940;SDS011;1480;51.456;6.670;2024-02-21T00:24:46;15.13;;;7.97;;
2940;SDS011;1480;51.456;6.670;2024-02-21T00:27:14;17.80;;;7.63;;
2940;SDS011;1480;51.456;6.670;2024-02-21T00:29:40;17.77;;;8.50;;
2940;SDS011;1480;51.456;6.670;2024-02-21T00:32:07;14.67;;;9.20;;
2940;SDS011;1480;51.456;6.670;2024-02-21T00:34:33;13.50;;;7.30;;
2940;SDS011;1480;51.456;6.670;2024-02-21T00:37:00;20.83;;;8.97;;
2940;SDS011;1480;51.456;6.670;2024-02-21T00:39:27;21.00;;;8.43;;
2940;SDS011;1480;51.456;6.670;2024-02-21T00:41:54;17.57;;;7.97;;
2940;SDS011;1480;51.456;6.670;2024-02-21T00:44:22;17.40;;;9.23;;
2940;SDS011;1480;51.456;6.670;2024-02-21T00:46:48;23.07;;;9.60;;
2940;SDS011;1480;51.456;6.670;2024-02-21T00:49:16;19.07;;;8.87;;
2940;SDS011;1480;51.456;6.670;2024-02-21T00:51:42;14.80;;;8.30;;
2940;SDS011;1480;51.456;6.670;2024-02-21T00:54:09;17.67;;;8.47;;
2940;SDS011;1480;51.456;6.670;2024-02-21T00:56:35;19.03;;;10.03;;
2940;SDS011;1480;51.456;6.670;2024-02-21T00:59:02;19.40;;;8.80;;
2940;SDS011;1480;51.456;6.670;2024-02-21T01:01:30;16.93;;;9.47;;
2940;SDS011;1480;51.456;6.670;2024-02-21T01:03:57;27.17;;;10.67;;
2940;SDS011;1480;51.456;6.670;2024-02-21T01:06:22;13.53;;;7.70;;
2940;SDS011;1480;51.456;6.670;2024-02-21T01:08:49;17.30;;;9.00;;
2940;SDS011;1480;51.456;6.670;2024-02-21T01:11:16;22.43;;;9.07;;
2940;SDS011;1480;51.456;6.670;2024-02-21T01:13:43;21.33;;;9.17;;
2940;SDS011;1480;51.456;6.670;2024-02-21T01:16:10;19.27;;;8.93;;
2940;SDS011;1480;51.456;6.670;2024-02-21T01:18:38;21.20;;;8.77;;
2940;SDS011;1480;51.456;6.670;2024-02-21T01:21:06;15.60;;;7.97;;
2940;SDS011;1480;51.456;6.670;2024-02-21T01:23:33;22.13;;;9.37;;
2940;SDS011;1480;51.456;6.670;2024-02-21T01:26:00;15.30;;;8.30;;
2940;SDS011;1480;51.456;6.670;2024-02-21T01:28:26;14.07;;;6.60;;
2940;SDS011;1480;51.456;6.670;2024-02-21T01:30:53;19.43;;;8.70;;
2940;SDS011;1480;51.456;6.670;2024-02-21T01:33:20;12.87;;;7.00;;
2940;SDS011;1480;51.456;6.670;2024-02-21T01:35:48;20.70;;;8.60;;
2940;SDS011;1480;51.456;6.670;2024-02-21T01:38:15;14.50;;;7.33;;
2940;SDS011;1480;51.456;6.670;2024-02-21T01:40:41;18.00;;;8.50;;
2940;SDS011;1480;51.456;6.670;2024-02-21T01:43:15;14.23;;;7.27;;
2940;SDS011;1480;51.456;6.670;2024-02-21T01:45:42;20.23;;;8.20;;
2940;SDS011;1480;51.456;6.670;2024-02-21T01:48:09;10.97;;;7.07;;
2940;SDS011;1480;51.456;6.670;2024-02-21T01:50:35;14.90;;;6.63;;
2940;SDS011;1480;51.456;6.670;2024-02-21T01:53:04;21.23;;;7.53;;
2940;SDS011;1480;51.456;6.670;2024-02-21T01:55:30;19.67;;;9.20;;
2940;SDS011;1480;51.456;6.670;2024-02-21T01:57:57;14.27;;;6.87;;
2940;SDS011;1480;51.456;6.670;2024-02-21T02:00:24;13.57;;;7.87;;
2940;SDS011;1480;51.456;6.670;2024-02-21T02:02:51;13.70;;;6.70;;
2940;SDS011;1480;51.456;6.670;2024-02-21T02:05:17;16.60;;;8.20;;
2940;SDS011;1480;51.456;6.670;2024-02-21T02:07:46;16.37;;;6.90;;
2940;SDS011;1480;51.456;6.670;2024-02-21T02:10:14;12.30;;;6.57;;
2940;SDS011;1480;51.456;6.670;2024-02-21T02:12:41;14.97;;;7.30;;
2940;SDS011;1480;51.456;6.670;2024-02-21T02:15:07;23.83;;;8.10;;
2940;SDS011;1480;51.456;6.670;2024-02-21T02:17:34;9.77;;;5.70;;
2940;SDS011;1480;51.456;6.670;2024-02-21T02:20:01;15.80;;;7.30;;
2940;SDS011;1480;51.456;6.670;2024-02-21T02:22:30;12.67;;;7.50;;
2940;SDS011;1480;51.456;6.670;2024-02-21T02:24:59;18.50;;;8.43;;
2940;SDS011;1480;51.456;6.670;2024-02-21T02:27:26;10.90;;;7.07;;
2940;SDS011;1480;51.456;6.670;2024-02-21T02:29:53;17.83;;;7.80;;
2940;SDS011;1480;51.456;6.670;2024-02-21T02:32:19;18.87;;;9.33;;
2940;SDS011;1480;51.456;6.670;2024-02-21T02:34:46;17.27;;;5.80;;
2940;SDS011;1480;51.456;6.670;2024-02-21T02:37:13;12.83;;;6.63;;
2940;SDS011;1480;51.456;6.670;2024-02-21T02:39:39;15.37;;;7.63;;
2940;SDS011;1480;51.456;6.670;2024-02-21T02:42:07;15.43;;;7.13;;
2940;SDS011;1480;51.456;6.670;2024-02-21T02:44:35;22.67;;;7.47;;
2940;SDS011;1480;51.456;6.670;2024-02-21T02:47:01;17.70;;;7.47;;
2940;SDS011;1480;51.456;6.670;2024-02-21T02:49:28;12.80;;;6.30;;
2940;SDS011;1480;51.456;6.670;2024-02-21T02:51:55;9.60;;;6.60;;
2940;SDS011;1480;51.456;6.670;2024-02-21T02:54:21;12.40;;;7.10;;
2940;SDS011;1480;51.456;6.670;2024-02-21T02:56:49;17.30;;;6.03;;
2940;SDS011;1480;51.456;6.670;2024-02-21T02:59:18;18.37;;;8.17;;
2940;SDS011;1480;51.456;6.670;2024-02-21T03:01:44;13.50;;;7.70;;
2940;SDS011;1480;51.456;6.670;2024-02-21T03:04:11;11.20;;;7.50;;
2940;SDS011;1480;51.456;6.670;2024-02-21T03:06:38;19.47;;;8.23;;
2940;SDS011;1480;51.456;6.670;2024-02-21T03:09:04;16.00;;;7.63;;
2940;SDS011;1480;51.456;6.670;2024-02-21T03:11:33;13.20;;;6.23;;
2940;SDS011;1480;51.456;6.670;2024-02-21T03:14:00;13.27;;;7.77;;
2940;SDS011;1480;51.456;6.670;2024-02-21T03:16:28;14.67;;;5.97;;
2940;SDS011;1480;51.456;6.670;2024-02-21T03:18:55;10.87;;;5.50;;
2940;SDS011;1480;51.456;6.670;2024-02-21T03:21:21;20.37;;;7.57;;
2940;SDS011;1480;51.456;6.670;2024-02-21T03:23:48;13.20;;;7.10;;
2940;SDS011;1480;51.456;6.670;2024-02-21T03:26:15;9.37;;;5.60;;
2940;SDS011;1480;51.456;6.670;2024-02-21T03:28:42;10.70;;;5.97;;
2940;SDS011;1480;51.456;6.670;2024-02-21T03:31:10;10.10;;;5.80;;
2940;SDS011;1480;51.456;6.670;2024-02-21T03:33:39;13.00;;;6.60;;
2940;SDS011;1480;51.456;6.670;2024-02-21T03:36:06;12.53;;;6.43;;
2940;SDS011;1480;51.456;6.670;2024-02-21T03:38:33;12.50;;;5.80;;
2940;SDS011;1480;51.456;6.670;2024-02-21T03:41:00;14.80;;;5.73;;
2940;SDS011;1480;51.456;6.670;2024-02-21T03:43:27;7.20;;;4.47;;
2940;SDS011;1480;51.456;6.670;2024-02-21T03:45:53;8.90;;;5.23;;
2940;SDS011;1480;51.456;6.670;2024-02-21T03:48:20;12.20;;;6.60;;
2940;SDS011;1480;51.456;6.670;2024-02-21T03:50:48;10.57;;;5.10;;
2940;SDS011;1480;51.456;6.670;2024-02-21T03:53:14;9.73;;;5.43;;
2940;SDS011;1480;51.456;6.670;2024-02-21T03:55:41;8.00;;;5.50;;
2940;SDS011;1480;51.456;6.670;2024-02-21T03:58:08;14.80;;;6.27;;
2940;SDS011;1480;51.456;6.670;2024-02-21T04:00:34;16.03;;;6.80;;
2940;SDS011;1480;51.456;6.670;2024-02-21T04:03:01;8.63;;;5.80;;
2940;SDS011;1480;51.456;6.670;2024-02-21T04:05:28;13.40;;;5.57;;
2940;SDS011;1480;51.456;6.670;2024-02-21T04:07:56;12.10;;;6.00;;
2940;SDS011;1480;51.456;6.670;2024-02-21T04:10:23;10.37;;;6.37;;
2940;SDS011;1480;51.456;6.670;2024-02-21T04:12:50;13.97;;;7.40;;
2940;SDS011;1480;51.456;6.670;2024-02-21T04:15:17;13.30;;;5.17;;
2940;SDS011;1480;51.456;6.670;2024-02-21T04:17:44;21.57;;;6.70;;
2940;SDS011;1480;51.456;6.670;2024-02-21T04:20:13;16.27;;;6.60;;
2940;SDS011;1480;51.456;6.670;2024-02-21T04:22:40;11.90;;;5.53;;
2940;SDS011;1480;51.456;6.670;2024-02-21T04:25:10;8.67;;;5.50;;
2940;SDS011;1480;51.456;6.670;2024-02-21T04:27:37;16.77;;;6.10;;
2940;SDS011;1480;51.456;6.670;2024-02-21T04:30:05;13.60;;;6.47;;
2940;SDS011;1480;51.456;6.670;2024-02-21T04:32:32;8.77;;;5.30;;
2940;SDS011;1480;51.456;6.670;2024-02-21T04:34:59;12.23;;;4.77;;
2940;SDS011;1480;51.456;6.670;2024-02-21T04:37:25;13.53;;;5.60;;
2940;SDS011;1480;51.456;6.670;2024-02-21T04:39:52;8.20;;;4.90;;
2940;SDS011;1480;51.456;6.670;2024-02-21T04:42:20;10.13;;;5.37;;
2940;SDS011;1480;51.456;6.670;2024-02-21T04:44:47;11.33;;;5.73;;
2940;SDS011;1480;51.456;6.670;2024-02-21T04:47:13;12.77;;;5.17;;
2940;SDS011;1480;51.456;6.670;2024-02-21T04:49:40;8.07;;;5.20;;
2940;SDS011;1480;51.456;6.670;2024-02-21T04:52:10;7.33;;;4.60;;
2940;SDS011;1480;51.456;6.670;2024-02-21T04:54:36;16.20;;;4.97;;
2940;SDS011;1480;51.456;6.670;2024-02-21T04:57:03;11.60;;;5.20;;
2940;SDS011;1480;51.456;6.670;2024-02-21T04:59:31;12.80;;;4.70;;
2940;SDS011;1480;51.456;6.670;2024-02-21T05:02:00;12.90;;;5.80;;
2940;SDS011;1480;51.456;6.670;2024-02-21T05:04:26;6.53;;;4.57;;
2940;SDS011;1480;51.456;6.670;2024-02-21T05:06:53;7.57;;;4.20;;
2940;SDS011;1480;51.456;6.670;2024-02-21T05:09:20;14.90;;;4.07;;
2940;SDS011;1480;51.456;6.670;2024-02-21T05:11:47;8.90;;;4.17;;
2940;SDS011;1480;51.456;6.670;2024-02-21T05:14:14;6.87;;;4.57;;
2940;SDS011;1480;51.456;6.670;2024-02-21T05:16:42;7.70;;;3.97;;
2940;SDS011;1480;51.456;6.670;2024-02-21T05:19:08;8.30;;;5.17;;
2940;SDS011;1480;51.456;6.670;2024-02-21T05:21:35;12.90;;;5.50;;
2940;SDS011;1480;51.456;6.670;2024-02-21T05:24:02;9.73;;;4.43;;
2940;SDS011;1480;51.456;6.670;2024-02-21T05:26:29;8.43;;;4.97;;
2940;SDS011;1480;51.456;6.670;2024-02-21T05:28:55;6.93;;;4.40;;
2940;SDS011;1480;51.456;6.670;2024-02-21T05:31:24;14.93;;;5.90;;
2940;SDS011;1480;51.456;6.670;2024-02-21T05:33:52;8.50;;;4.20;;
2940;SDS011;1480;51.456;6.670;2024-02-21T05:36:18;9.10;;;4.33;;
2940;SDS011;1480;51.456;6.670;2024-02-21T05:38:45;8.30;;;4.93;;
2940;SDS011;1480;51.456;6.670;2024-02-21T05:41:12;13.47;;;4.67;;
2940;SDS011;1480;51.456;6.670;2024-02-21T05:43:38;7.80;;;4.70;;
2940;SDS011;1480;51.456;6.670;2024-02-21T05:46:05;14.40;;;5.20;;
2940;SDS011;1480;51.456;6.670;2024-02-21T05:48:32;16.43;;;4.87;;
2940;SDS011;1480;51.456;6.670;2024-02-21T05:51:01;10.40;;;4.57;;
2940;SDS011;1480;51.456;6.670;2024-02-21T05:53:27;10.27;;;4.93;;
2940;SDS011;1480;51.456;6.670;2024-02-21T05:55:54;14.80;;;5.27;;
2940;SDS011;1480;51.456;6.670;2024-02-21T05:58:21;9.93;;;5.40;;
2940;SDS011;1480;51.456;6.670;2024-02-21T06:00:47;12.63;;;5.60;;
2940;SDS011;1480;51.456;6.670;2024-02-21T06:03:14;7.43;;;4.33;;
2940;SDS011;1480;51.456;6.670;2024-02-21T06:05:41;7.43;;;3.83;;
2940;SDS011;1480;51.456;6.670;2024-02-21T06:08:09;12.83;;;4.83;;
2940;SDS011;1480;51.456;6.670;2024-02-21T06:10:35;7.70;;;4.90;;
2940;SDS011;1480;51.456;6.670;2024-02-21T06:13:02;13.57;;;4.87;;
2940;SDS011;1480;51.456;6.670;2024-02-21T06:15:29;10.43;;;4.53;;
2940;SDS011;1480;51.456;6.670;2024-02-21T06:17:56;10.50;;;5.50;;
2940;SDS011;1480;51.456;6.670;2024-02-21T06:20:23;12.10;;;5.53;;
2940;SDS011;1480;51.456;6.670;2024-02-21T06:22:49;17.80;;;5.37;;
2940;SDS011;1480;51.456;6.670;2024-02-21T06:25:17;10.90;;;5.53;;
2940;SDS011;1480;51.456;6.670;2024-02-21T06:27:44;9.33;;;5.37;;
2940;SDS011;1480;51.456;6.670;2024-02-21T06:30:11;9.50;;;5.50;;
2940;SDS011;1480;51.456;6.670;2024-02-21T06:32:38;9.57;;;5.57;;
2940;SDS011;1480;51.456;6.670;2024-02-21T06:35:05;8.00;;;5.00;;
2940;SDS011;1480;51.456;6.670;2024-02-21T06:37:32;10.70;;;5.90;;
2940;SDS011;1480;51.456;6.670;2024-02-21T06:39:58;10.00;;;5.40;;
2940;SDS011;1480;51.456;6.670;2024-02-21T06:42:26;7.50;;;4.83;;
2940;SDS011;1480;51.456;6.670;2024-02-21T06:44:54;9.17;;;4.47;;
2940;SDS011;1480;51.456;6.670;2024-02-21T06:47:21;9.27;;;4.60;;
2940;SDS011;1480;51.456;6.670;2024-02-21T06:49:48;8.33;;;5.13;;
2940;SDS011;1480;51.456;6.670;2024-02-21T06:52:17;8.50;;;5.00;;
2940;SDS011;1480;51.456;6.670;2024-02-21T06:54:45;7.97;;;4.43;;
2940;SDS011;1480;51.456;6.670;2024-02-21T06:57:12;8.03;;;4.67;;
2940;SDS011;1480;51.456;6.670;2024-02-21T06:59:40;12.60;;;4.93;;
2940;SDS011;1480;51.456;6.670;2024-02-21T07:02:07;12.90;;;4.87;;
2940;SDS011;1480;51.456;6.670;2024-02-21T07:04:33;7.43;;;4.20;;
2940;SDS011;1480;51.456;6.670;2024-02-21T07:07:00;7.87;;;4.87;;
2940;SDS011;1480;51.456;6.670;2024-02-21T07:09:27;11.33;;;5.00;;
2940;SDS011;1480;51.456;6.670;2024-02-21T07:11:56;11.87;;;5.63;;
2940;SDS011;1480;51.456;6.670;2024-02-21T07:14:23;9.30;;;4.10;;
2940;SDS011;1480;51.456;6.670;2024-02-21T07:16:51;8.33;;;4.60;;
2940;SDS011;1480;51.456;6.670;2024-02-21T07:19:18;9.80;;;4.67;;
2940;SDS011;1480;51.456;6.670;2024-02-21T07:21:47;15.10;;;5.30;;
2940;SDS011;1480;51.456;6.670;2024-02-21T07:24:14;12.77;;;6.40;;
2940;SDS011;1480;51.456;6.670;2024-02-21T07:26:41;7.53;;;4.00;;
2940;SDS011;1480;51.456;6.670;2024-02-21T07:29:09;18.97;;;5.73;;
2940;SDS011;1480;51.456;6.670;2024-02-21T07:31:38;15.10;;;4.63;;
2940;SDS011;1480;51.456;6.670;2024-02-21T07:34:08;9.40;;;4.37;;
2940;SDS011;1480;51.456;6.670;2024-02-21T07:36:35;9.43;;;4.00;;
2940;SDS011;1480;51.456;6.670;2024-02-21T07:39:02;8.63;;;4.03;;
2940;SDS011;1480;51.456;6.670;2024-02-21T07:41:29;10.60;;;4.30;;
2940;SDS011;1480;51.456;6.670;2024-02-21T07:43:56;10.63;;;5.60;;
2940;SDS011;1480;51.456;6.670;2024-02-21T07:46:23;17.47;;;5.33;;
2940;SDS011;1480;51.456;6.670;2024-02-21T07:48:50;12.40;;;5.10;;
2940;SDS011;1480;51.456;6.670;2024-02-21T07:51:18;8.07;;;4.07;;
2940;SDS011;1480;51.456;6.670;2024-02-21T07:53:45;7.30;;;3.80;;
2940;SDS011;1480;51.456;6.670;2024-02-21T07:56:12;12.43;;;4.67;;
2940;SDS011;1480;51.456;6.670;2024-02-21T07:58:39;9.23;;;5.03;;
2940;SDS011;1480;51.456;6.670;2024-02-21T08:01:06;6.00;;;3.63;;
2940;SDS011;1480;51.456;6.670;2024-02-21T08:03:33;7.87;;;3.90;;
2940;SDS011;1480;51.456;6.670;2024-02-21T08:05:59;4.60;;;3.50;;
2940;SDS011;1480;51.456;6.670;2024-02-21T08:08:28;6.33;;;4.50;;
2940;SDS011;1480;51.456;6.670;2024-02-21T08:10:55;8.63;;;4.40;;
2940;SDS011;1480;51.456;6.670;2024-02-21T08:13:23;6.87;;;3.40;;
2940;SDS011;1480;51.456;6.670;2024-02-21T08:15:50;6.10;;;3.27;;
2940;SDS011;1480;51.456;6.670;2024-02-21T08:18:17;7.20;;;3.90;;
2940;SDS011;1480;51.456;6.670;2024-02-21T08:20:43;5.10;;;3.30;;
2940;SDS011;1480;51.456;6.670;2024-02-21T08:23:10;7.60;;;4.37;;
2940;SDS011;1480;51.456;6.670;2024-02-21T08:25:38;4.93;;;3.27;;
2940;SDS011;1480;51.456;6.670;2024-02-21T08:28:05;11.83;;;4.30;;
2940;SDS011;1480;51.456;6.670;2024-02-21T08:30:32;9.10;;;3.93;;
2940;SDS011;1480;51.456;6.670;2024-02-21T08:32:59;7.17;;;3.90;;
2940;SDS011;1480;51.456;6.670;2024-02-21T08:35:26;12.10;;;4.60;;
2940;SDS011;1480;51.456;6.670;2024-02-21T08:37:52;12.47;;;4.60;;
2940;SDS011;1480;51.456;6.670;2024-02-21T08:40:19;7.43;;;3.80;;
2940;SDS011;1480;51.456;6.670;2024-02-21T08:42:48;9.20;;;4.30;;
2940;SDS011;1480;51.456;6.670;2024-02-21T08:45:15;9.40;;;4.90;;
2940;SDS011;1480;51.456;6.670;2024-02-21T08:47:42;8.93;;;4.47;;
2940;SDS011;1480;51.456;6.670;2024-02-21T08:50:09;9.07;;;4.07;;
2940;SDS011;1480;51.456;6.670;2024-02-21T08:52:36;7.50;;;4.83;;
2940;SDS011;1480;51.456;6.670;2024-02-21T08:55:03;8.23;;;3.93;;
2940;SDS011;1480;51.456;6.670;2024-02-21T08:57:30;8.00;;;3.70;;
2940;SDS011;1480;51.456;6.670;2024-02-21T09:00:03;6.73;;;3.90;;
2940;SDS011;1480;51.456;6.670;2024-02-21T09:02:35;6.83;;;3.30;;
2940;SDS011;1480;51.456;6.670;2024-02-21T09:05:03;13.17;;;5.83;;
2940;SDS011;1480;51.456;6.670;2024-02-21T09:07:31;7.13;;;3.50;;
2940;SDS011;1480;51.456;6.670;2024-02-21T09:09:57;11.23;;;3.20;;
2940;SDS011;1480;51.456;6.670;2024-02-21T09:12:24;9.13;;;3.73;;
2940;SDS011;1480;51.456;6.670;2024-02-21T09:14:51;5.63;;;3.10;;
2940;SDS011;1480;51.456;6.670;2024-02-21T09:17:19;6.30;;;2.87;;
2940;SDS011;1480;51.456;6.670;2024-02-21T09:19:46;11.03;;;3.40;;
2940;SDS011;1480;51.456;6.670;2024-02-21T09:22:13;7.20;;;4.43;;
2940;SDS011;1480;51.456;6.670;2024-02-21T09:24:39;5.67;;;3.10;;
2940;SDS011;1480;51.456;6.670;2024-02-21T09:27:06;7.03;;;2.70;;
2940;SDS011;1480;51.456;6.670;2024-02-21T09:29:33;5.70;;;3.20;;
2940;SDS011;1480;51.456;6.670;2024-02-21T09:32:00;6.77;;;3.57;;
2940;SDS011;1480;51.456;6.670;2024-02-21T09:34:29;6.73;;;3.27;;
2940;SDS011;1480;51.456;6.670;2024-02-21T09:36:56;7.93;;;2.90;;
2940;SDS011;1480;51.456;6.670;2024-02-21T09:39:22;8.30;;;3.47;;
2940;SDS011;1480;51.456;6.670;2024-02-21T09:41:50;6.33;;;2.77;;
2940;SDS011;1480;51.456;6.670;2024-02-21T09:44:20;6.60;;;3.17;;
2940;SDS011;1480;51.456;6.670;2024-02-21T09:46:50;7.97;;;3.00;;
2940;SDS011;1480;51.456;6.670;2024-02-21T09:49:21;6.43;;;3.00;;
2940;SDS011;1480;51.456;6.670;2024-02-21T09:52:00;10.63;;;3.13;;
2940;SDS011;1480;51.456;6.670;2024-02-21T09:54:28;9.40;;;2.83;;
2940;SDS011;1480;51.456;6.670;2024-02-21T09:56:55;10.20;;;3.27;;
2940;SDS011;1480;51.456;6.670;2024-02-21T09:59:22;4.50;;;3.00;;
2940;SDS011;1480;51.456;6.670;2024-02-21T10:01:50;11.13;;;3.40;;
2940;SDS011;1480;51.456;6.670;2024-02-21T10:04:17;8.27;;;3.10;;
2940;SDS011;1480;51.456;6.670;2024-02-21T10:06:46;4.67;;;2.97;;
2940;SDS011;1480;51.456;6.670;2024-02-21T10:09:19;9.80;;;2.93;;
2940;SDS011;1480;51.456;6.670;2024-02-21T10:11:48;6.60;;;2.93;;
2940;SDS011;1480;51.456;6.670;2024-02-21T10:14:14;4.13;;;2.33;;
2940;SDS011;1480;51.456;6.670;2024-02-21T10:16:42;7.33;;;2.60;;
2940;SDS011;1480;51.456;6.670;2024-02-21T10:19:15;5.30;;;2.33;;
2940;SDS011;1480;51.456;6.670;2024-02-21T10:21:43;10.00;;;3.53;;
2940;SDS011;1480;51.456;6.670;2024-02-21T10:24:11;4.77;;;2.30;;
2940;SDS011;1480;51.456;6.670;2024-02-21T10:26:38;5.87;;;2.60;;
2940;SDS011;1480;51.456;6.670;2024-02-21T10:29:05;8.73;;;2.80;;
2940;SDS011;1480;51.456;6.670;2024-02-21T10:31:31;9.93;;;3.13;;
2940;SDS011;1480;51.456;6.670;2024-02-21T10:33:59;4.53;;;2.10;;
2940;SDS011;1480;51.456;6.670;2024-02-21T10:36:28;7.67;;;2.90;;
2940;SDS011;1480;51.456;6.670;2024-02-21T10:38:55;8.10;;;2.53;;
2940;SDS011;1480;51.456;6.670;2024-02-21T10:41:23;8.63;;;2.10;;
2940;SDS011;1480;51.456;6.670;2024-02-21T10:43:52;3.60;;;2.20;;
2940;SDS011;1480;51.456;6.670;2024-02-21T10:46:20;2.23;;;1.43;;
2940;SDS011;1480;51.456;6.670;2024-02-21T10:48:48;5.10;;;2.63;;
2940;SDS011;1480;51.456;6.670;2024-02-21T10:51:19;7.67;;;2.70;;
2940;SDS011;1480;51.456;6.670;2024-02-21T10:53:50;8.73;;;3.73;;
2940;SDS011;1480;51.456;6.670;2024-02-21T10:56:26;5.40;;;2.60;;
2940;SDS011;1480;51.456;6.670;2024-02-21T10:58:55;5.30;;;2.20;;
2940;SDS011;1480;51.456;6.670;2024-02-21T11:01:24;4.13;;;2.37;;
2940;SDS011;1480;51.456;6.670;2024-02-21T11:03:53;4.10;;;3.17;;
2940;SDS011;1480;51.456;6.670;2024-02-21T11:06:21;4.73;;;2.90;;
2940;SDS011;1480;51.456;6.670;2024-02-21T11:08:58;6.13;;;2.57;;
2940;SDS011;1480;51.456;6.670;2024-02-21T11:11:27;11.53;;;2.60;;
2940;SDS011;1480;51.456;6.670;2024-02-21T11:14:03;11.53;;;3.00;;
2940;SDS011;1480;51.456;6.670;2024-02-21T11:16:34;4.33;;;2.20;;
2940;SDS011;1480;51.456;6.670;2024-02-21T11:19:06;4.50;;;2.53;;
2940;SDS011;1480;51.456;6.670;2024-02-21T11:21:33;9.20;;;2.73;;
2940;SDS011;1480;51.456;6.670;2024-02-21T11:24:01;6.93;;;2.30;;
2940;SDS011;1480;51.456;6.670;2024-02-21T11:26:29;10.60;;;2.90;;
2940;SDS011;1480;51.456;6.670;2024-02-21T11:28:57;3.20;;;2.30;;
2940;SDS011;1480;51.456;6.670;2024-02-21T11:31:25;4.87;;;2.93;;
2940;SDS011;1480;51.456;6.670;2024-02-21T11:33:52;3.43;;;1.90;;
2940;SDS011;1480;51.456;6.670;2024-02-21T11:36:23;11.73;;;2.40;;
2940;SDS011;1480;51.456;6.670;2024-02-21T11:38:51;8.67;;;2.70;;
2940;SDS011;1480;51.456;6.670;2024-02-21T11:41:18;5.27;;;2.27;;
2940;SDS011;1480;51.456;6.670;2024-02-21T11:43:47;8.03;;;2.70;;
2940;SDS011;1480;51.456;6.670;2024-02-21T11:46:15;4.20;;;1.97;;
2940;SDS011;1480;51.456;6.670;2024-02-21T11:48:42;4.20;;;2.20;;
2940;SDS011;1480;51.456;6.670;2024-02-21T11:51:09;5.40;;;2.33;;
2940;SDS011;1480;51.456;6.670;2024-02-21T11:53:36;2.80;;;1.93;;
2940;SDS011;1480;51.456;6.670;2024-02-21T11:56:03;6.73;;;3.07;;
2940;SDS011;1480;51.456;6.670;2024-02-21T11:58:30;5.93;;;2.03;;
2940;SDS011;1480;51.456;6.670;2024-02-21T12:00:58;5.23;;;2.63;;
2940;SDS011;1480;51.456;6.670;2024-02-21T12:03:28;5.43;;;2.70;;
2940;SDS011;1480;51.456;6.670;2024-02-21T12:05:54;8.97;;;2.70;;
2940;SDS011;1480;51.456;6.670;2024-02-21T12:08:23;3.90;;;2.20;;
2940;SDS011;1480;51.456;6.670;2024-02-21T12:10:50;6.43;;;2.93;;
2940;SDS011;1480;51.456;6.670;2024-02-21T12:13:17;4.17;;;2.13;;
2940;SDS011;1480;51.456;6.670;2024-02-21T12:15:47;5.97;;;3.30;;
2940;SDS011;1480;51.456;6.670;2024-02-21T12:18:15;4.13;;;2.53;;
2940;SDS011;1480;51.456;6.670;2024-02-21T12:20:42;9.50;;;3.23;;
2940;SDS011;1480;51.456;6.670;2024-02-21T12:23:09;4.10;;;2.33;;
2940;SDS011;1480;51.456;6.670;2024-02-21T12:25:36;4.73;;;2.50;;
2940;SDS011;1480;51.456;6.670;2024-02-21T12:28:05;5.40;;;2.93;;
2940;SDS011;1480;51.456;6.670;2024-02-21T12:30:32;7.50;;;2.50;;
2940;SDS011;1480;51.456;6.670;2024-02-21T12:33:00;5.13;;;2.70;;
2940;SDS011;1480;51.456;6.670;2024-02-21T12:35:29;15.23;;;3.17;;
2940;SDS011;1480;51.456;6.670;2024-02-21T12:37:58;7.17;;;2.70;;
2940;SDS011;1480;51.456;6.670;2024-02-21T12:40:25;5.70;;;2.60;;
2940;SDS011;1480;51.456;6.670;2024-02-21T12:42:57;7.40;;;2.90;;
2940;SDS011;1480;51.456;6.670;2024-02-21T12:45:24;6.73;;;3.27;;
2940;SDS011;1480;51.456;6.670;2024-02-21T12:47:51;5.07;;;2.37;;
2940;SDS011;1480;51.456;6.670;2024-02-21T12:50:18;8.23;;;2.40;;
2940;SDS011;1480;51.456;6.670;2024-02-21T12:52:46;6.80;;;2.60;;
2940;SDS011;1480;51.456;6.670;2024-02-21T12:55:15;4.03;;;2.40;;
2940;SDS011;1480;51.456;6.670;2024-02-21T12:57:42;6.50;;;2.50;;
2940;SDS011;1480;51.456;6.670;2024-02-21T13:00:09;6.30;;;2.37;;
2940;SDS011;1480;51.456;6.670;2024-02-21T13:02:36;8.30;;;2.73;;
2940;SDS011;1480;51.456;6.670;2024-02-21T13:05:03;5.00;;;2.10;;
2940;SDS011;1480;51.456;6.670;2024-02-21T13:07:30;6.03;;;2.67;;
2940;SDS011;1480;51.456;6.670;2024-02-21T13:09:59;2.67;;;2.00;;
2940;SDS011;1480;51.456;6.670;2024-02-21T13:12:25;4.00;;;2.00;;
2940;SDS011;1480;51.456;6.670;2024-02-21T13:14:52;6.13;;;2.00;;
2940;SDS011;1480;51.456;6.670;2024-02-21T13:17:19;5.20;;;2.00;;
2940;SDS011;1480;51.456;6.670;2024-02-21T13:19:47;7.50;;;2.03;;
2940;SDS011;1480;51.456;6.670;2024-02-21T13:22:14;9.27;;;2.17;;
2940;SDS011;1480;51.456;6.670;2024-02-21T13:24:41;5.73;;;2.50;;
2940;SDS011;1480;51.456;6.670;2024-02-21T13:27:09;3.43;;;1.73;;
2940;SDS011;1480;51.456;6.670;2024-02-21T13:29:35;4.20;;;2.27;;
2940;SDS011;1480;51.456;6.670;2024-02-21T13:32:02;5.13;;;2.40;;
2940;SDS011;1480;51.456;6.670;2024-02-21T13:34:29;3.90;;;1.93;;
2940;SDS011;1480;51.456;6.670;2024-02-21T13:36:56;5.60;;;1.67;;
2940;SDS011;1480;51.456;6.670;2024-02-21T13:39:23;3.63;;;2.30;;
2940;SDS011;1480;51.456;6.670;2024-02-21T13:41:50;4.97;;;2.93;;
2940;SDS011;1480;51.456;6.670;2024-02-21T13:44:18;7.20;;;1.80;;
2940;SDS011;1480;51.456;6.670;2024-02-21T13:46:45;2.43;;;1.53;;
2940;SDS011;1480;51.456;6.670;2024-02-21T13:49:12;5.00;;;2.40;;
2940;SDS011;1480;51.456;6.670;2024-02-21T13:51:38;6.40;;;2.50;;
2940;SDS011;1480;51.456;6.670;2024-02-21T13:54:06;3.17;;;1.57;;
2940;SDS011;1480;51.456;6.670;2024-02-21T13:56:34;6.20;;;2.30;;
2940;SDS011;1480;51.456;6.670;2024-02-21T13:59:01;2.43;;;1.90;;
2940;SDS011;1480;51.456;6.670;2024-02-21T14:01:29;4.37;;;1.80;;
2940;SDS011;1480;51.456;6.670;2024-02-21T14:03:57;5.47;;;2.57;;
2940;SDS011;1480;51.456;6.670;2024-02-21T14:06:23;3.00;;;2.27;;
2940;SDS011;1480;51.456;6.670;2024-02-21T14:08:50;3.43;;;2.53;;
2940;SDS011;1480;51.456;6.670;2024-02-21T14:11:17;7.20;;;2.97;;
2940;SDS011;1480;51.456;6.670;2024-02-21T14:13:44;8.00;;;3.23;;
2940;SDS011;1480;51.456;6.670;2024-02-21T14:16:11;4.67;;;2.43;;
2940;SDS011;1480;51.456;6.670;2024-02-21T14:18:39;10.10;;;3.20;;
2940;SDS011;1480;51.456;6.670;2024-02-21T14:21:07;5.23;;;2.60;;
2940;SDS011;1480;51.456;6.670;2024-02-21T14:23:35;5.13;;;2.50;;
2940;SDS011;1480;51.456;6.670;2024-02-21T14:26:02;5.10;;;2.27;;
2940;SDS011;1480;51.456;6.670;2024-02-21T14:28:29;5.07;;;2.27;;
2940;SDS011;1480;51.456;6.670;2024-02-21T14:30:56;5.33;;;2.70;;
2940;SDS011;1480;51.456;6.670;2024-02-21T14:33:24;5.47;;;2.70;;
2940;SDS011;1480;51.456;6.670;2024-02-21T14:35:53;4.20;;;2.73;;
2940;SDS011;1480;51.456;6.670;2024-02-21T14:38:19;3.57;;;1.77;;
2940;SDS011;1480;51.456;6.670;2024-02-21T14:40:46;5.50;;;1.90;;
2940;SDS011;1480;51.456;6.670;2024-02-21T14:43:13;5.40;;;2.47;;
2940;SDS011;1480;51.456;6.670;2024-02-21T14:45:39;6.73;;;2.30;;
2940;SDS011;1480;51.456;6.670;2024-02-21T14:48:08;3.00;;;1.97;;
2940;SDS011;1480;51.456;6.670;2024-02-21T14:50:34;7.37;;;2.27;;
2940;SDS011;1480;51.456;6.670;2024-02-21T14:53:02;6.40;;;2.57;;
2940;SDS011;1480;51.456;6.670;2024-02-21T14:55:29;5.27;;;2.67;;
2940;SDS011;1480;51.456;6.670;2024-02-21T14:57:56;3.20;;;2.10;;
2940;SDS011;1480;51.456;6.670;2024-02-21T15:00:23;3.40;;;2.17;;
2940;SDS011;1480;51.456;6.670;2024-02-21T15:02:55;15.80;;;3.17;;
2940;SDS011;1480;51.456;6.670;2024-02-21T15:05:22;2.70;;;2.03;;
2940;SDS011;1480;51.456;6.670;2024-02-21T15:07:49;5.10;;;2.20;;
2940;SDS011;1480;51.456;6.670;2024-02-21T15:10:17;3.27;;;1.93;;